createdAt,value
2023-04-26T00:03:46.700Z,4.65
2023-04-26T00:08:49.277Z,5.22
2023-04-26T00:13:51.805Z,5.50
2023-04-26T00:18:55.025Z,5.63
2023-04-26T00:23:57.830Z,4.93
2023-04-26T00:29:00.013Z,5.07
2023-04-26T00:34:02.182Z,4.53
2023-04-26T00:39:04.394Z,5.12
2023-04-26T00:44:06.784Z,5.07
2023-04-26T00:49:09.741Z,6.10
2023-04-26T00:54:13.963Z,5.78
2023-04-26T00:59:16.309Z,5.57
2023-04-26T01:04:19.246Z,6.30
2023-04-26T01:09:22.391Z,5.63
2023-04-26T01:14:25.284Z,6.07
2023-04-26T01:19:27.462Z,6.22
2023-04-26T01:24:30.222Z,5.78
2023-04-26T01:29:32.472Z,6.05
2023-04-26T01:34:34.736Z,5.50
2023-04-26T01:39:37.127Z,6.07
2023-04-26T01:44:39.643Z,5.72
2023-04-26T01:49:41.887Z,6.30
2023-04-26T01:54:44.149Z,6.10
2023-04-26T01:59:46.433Z,6.13
2023-04-26T02:04:48.583Z,5.65
2023-04-26T02:09:50.842Z,5.72
2023-04-26T02:14:53.057Z,5.40
2023-04-26T02:19:55.448Z,3.85
2023-04-26T02:24:57.646Z,5.10
2023-04-26T02:29:59.904Z,4.70
2023-04-26T02:35:02.214Z,5.00
2023-04-26T02:40:05.898Z,4.78
2023-04-26T02:45:08.611Z,4.28
2023-04-26T02:50:11.030Z,5.00
2023-04-26T02:55:13.415Z,4.90
2023-04-26T03:00:15.738Z,4.60
2023-04-26T03:05:17.938Z,4.55
2023-04-26T03:10:20.037Z,4.40
2023-04-26T03:15:22.317Z,4.40
2023-04-26T03:20:25.558Z,3.83
2023-04-26T03:25:27.661Z,4.07
2023-04-26T03:30:30.035Z,4.10
2023-04-26T03:35:32.216Z,3.85
2023-04-26T03:40:34.421Z,4.17
2023-04-26T03:45:37.290Z,4.22
2023-04-26T03:50:39.669Z,4.05
2023-04-26T03:55:42.136Z,4.12
2023-04-26T04:00:44.555Z,4.70
2023-04-26T04:05:46.788Z,3.90
2023-04-26T04:10:49.144Z,4.68
2023-04-26T04:15:51.827Z,4.30
2023-04-26T04:20:54.039Z,4.40
2023-04-26T04:25:56.225Z,4.25
2023-04-26T04:30:58.497Z,4.27
2023-04-26T04:36:00.697Z,4.03
2023-04-26T04:41:02.884Z,3.80
2023-04-26T04:46:05.195Z,3.50
2023-04-26T04:51:08.190Z,4.65
2023-04-26T04:56:10.344Z,4.17
2023-04-26T05:01:12.545Z,4.43
2023-04-26T05:06:14.854Z,4.78
2023-04-26T05:11:17.190Z,6.03
2023-04-26T05:16:19.532Z,6.05
2023-04-26T05:21:22.170Z,5.70
2023-04-26T05:26:24.322Z,5.82
2023-04-26T05:31:27.607Z,5.68
2023-04-26T05:36:30.112Z,4.70
2023-04-26T05:41:32.561Z,5.18
2023-04-26T05:46:35.248Z,4.90
2023-04-26T05:51:37.591Z,4.40
2023-04-26T05:56:39.954Z,4.85
2023-04-26T06:01:42.351Z,4.32
2023-04-26T06:06:44.583Z,5.10
2023-04-26T06:11:46.816Z,3.70
2023-04-26T06:16:49.095Z,3.15
2023-04-26T06:21:54.926Z,3.80
2023-04-26T06:26:57.173Z,4.00
2023-04-26T06:31:59.436Z,4.28
2023-04-26T06:37:01.826Z,3.37
2023-04-26T06:42:07.477Z,4.10
2023-04-26T06:47:11.262Z,3.15
2023-04-26T06:52:13.454Z,3.30
2023-04-26T06:57:15.896Z,4.15
2023-04-26T07:02:18.577Z,2.77
2023-04-26T07:07:20.845Z,2.25
2023-04-26T07:12:23.021Z,2.90
2023-04-26T07:17:25.177Z,2.42
2023-04-26T07:22:27.310Z,2.80
2023-04-26T07:27:30.761Z,2.90
2023-04-26T07:32:33.032Z,2.92
2023-04-26T07:37:35.336Z,2.22
2023-04-26T07:42:37.502Z,2.12
2023-04-26T07:47:39.717Z,2.40
2023-04-26T07:52:43.419Z,2.70
2023-04-26T07:57:46.084Z,2.80
2023-04-26T08:02:48.645Z,2.90
2023-04-26T08:07:50.988Z,3.17
2023-04-26T08:12:53.275Z,3.75
2023-04-26T08:17:55.649Z,3.40
2023-04-26T08:22:58.328Z,3.60
2023-04-26T08:28:00.856Z,3.78
2023-04-26T08:33:03.533Z,3.20
2023-04-26T08:38:05.748Z,3.80
2023-04-26T08:43:11.036Z,3.30
2023-04-26T08:48:16.213Z,3.65
2023-04-26T08:53:18.575Z,3.10
2023-04-26T08:58:21.677Z,3.50
2023-04-26T09:03:26.429Z,3.40
2023-04-26T09:08:29.719Z,3.90
2023-04-26T09:13:31.879Z,3.83
2023-04-26T09:18:34.284Z,3.53
2023-04-26T09:23:36.797Z,4.10
2023-04-26T09:28:38.962Z,3.78
2023-04-26T09:33:59.306Z,3.90
2023-04-26T09:39:01.604Z,3.92
2023-04-26T09:44:03.895Z,3.58
2023-04-26T09:49:06.422Z,3.43
2023-04-26T09:54:08.637Z,3.40
2023-04-26T09:59:11.674Z,3.90
2023-04-26T10:04:14.023Z,4.25
2023-04-26T10:09:16.222Z,3.83
2023-04-26T10:14:18.472Z,3.93
2023-04-26T10:19:22.338Z,2.87
2023-04-26T10:24:24.602Z,3.30
2023-04-26T10:29:47.444Z,3.00
2023-04-26T10:35:16.532Z,3.05
2023-04-26T10:40:25.639Z,3.03
2023-04-26T10:45:29.933Z,2.78
2023-04-26T10:50:32.170Z,3.07
2023-04-26T10:55:43.677Z,3.37
2023-04-26T11:01:08.426Z,3.28
2023-04-26T11:06:13.957Z,2.63
2023-04-26T11:11:19.414Z,2.72
2023-04-26T11:16:21.679Z,2.23
2023-04-26T11:21:23.866Z,2.22
2023-04-26T11:26:33.104Z,2.75
2023-04-26T11:31:36.561Z,2.70
2023-04-26T11:36:38.744Z,2.50
2023-04-26T11:41:41.176Z,2.30
2023-04-26T11:46:43.573Z,2.35
2023-04-26T11:51:49.693Z,2.42
2023-04-26T11:56:51.908Z,2.40
2023-04-26T12:01:55.208Z,2.92
2023-04-26T12:06:58.511Z,2.60
2023-04-26T12:12:04.211Z,4.25
2023-04-26T12:17:07.980Z,2.20
2023-04-26T12:22:10.389Z,2.07
2023-04-26T12:27:21.978Z,2.30
2023-04-26T12:32:24.123Z,2.00
2023-04-26T12:37:26.236Z,2.03
2023-04-26T12:42:28.427Z,2.20
2023-04-26T12:47:31.988Z,2.37
2023-04-26T12:52:34.413Z,2.20
2023-04-26T12:57:38.177Z,2.00
2023-04-26T13:02:41.152Z,2.08
2023-04-26T13:07:44.524Z,2.30
2023-04-26T13:12:46.689Z,1.93
2023-04-26T13:17:49.135Z,1.95
2023-04-26T13:22:51.473Z,2.27
2023-04-26T13:27:54.847Z,2.10
2023-04-26T13:33:00.096Z,2.50
2023-04-26T13:38:03.054Z,2.10
2023-04-26T13:43:06.239Z,2.50
2023-04-26T13:48:08.515Z,2.80
2023-04-26T13:53:11.358Z,2.10
2023-04-26T13:58:13.765Z,2.22
2023-04-26T14:03:16.334Z,2.50
2023-04-26T14:08:18.745Z,2.70
2023-04-26T14:13:21.451Z,2.27
2023-04-26T14:18:23.578Z,2.22
2023-04-26T14:23:25.974Z,1.80
2023-04-26T14:28:28.232Z,2.13
2023-04-26T14:33:30.616Z,1.92
2023-04-26T14:38:33.064Z,2.07
2023-04-26T14:43:35.198Z,1.90
2023-04-26T14:48:37.449Z,1.80
2023-04-26T14:53:39.601Z,1.70
2023-04-26T14:58:44.068Z,1.90
2023-04-26T15:03:46.950Z,2.00
2023-04-26T15:08:49.372Z,2.15
2023-04-26T15:13:51.655Z,2.08
2023-04-26T15:18:53.883Z,1.73
2023-04-26T15:23:56.408Z,2.05
2023-04-26T15:28:58.543Z,1.87
2023-04-26T15:34:00.725Z,1.70
2023-04-26T15:39:03.211Z,1.90
2023-04-26T15:44:05.504Z,1.85
2023-04-26T15:49:07.677Z,1.67
2023-04-26T15:54:09.852Z,2.20
2023-04-26T15:59:12.110Z,1.90
2023-04-26T16:04:14.360Z,2.20
2023-04-26T16:09:25.359Z,2.40
2023-04-26T16:14:28.250Z,2.20
2023-04-26T16:19:31.018Z,2.00
2023-04-26T16:24:33.252Z,1.98
2023-04-26T16:29:35.360Z,2.00
2023-04-26T16:34:40.552Z,2.20
2023-04-26T16:39:43.451Z,1.80
2023-04-26T16:44:46.017Z,1.70
2023-04-26T16:49:48.189Z,1.73
2023-04-26T16:54:50.728Z,1.90
2023-04-26T16:59:52.895Z,1.60
2023-04-26T17:04:55.321Z,1.60
2023-04-26T17:09:57.836Z,2.10
2023-04-26T17:15:01.185Z,1.75
2023-04-26T17:20:10.152Z,1.95
2023-04-26T17:25:13.621Z,1.75
2023-04-26T17:30:16.089Z,1.80
2023-04-26T17:35:18.318Z,1.77
2023-04-26T17:40:21.126Z,1.50
2023-04-26T17:45:23.544Z,1.70
2023-04-26T17:50:26.002Z,1.80
2023-04-26T17:55:28.184Z,1.50
2023-04-26T18:00:30.449Z,1.87
2023-04-26T18:05:33.068Z,1.75
2023-04-26T18:10:35.201Z,1.77
2023-04-26T18:15:37.545Z,1.90
2023-04-26T18:20:39.646Z,1.92
2023-04-26T18:25:42.369Z,2.10
2023-04-26T18:30:44.717Z,1.70
2023-04-26T18:35:48.884Z,1.80
2023-04-26T18:40:51.236Z,1.70
2023-04-26T18:45:56.593Z,1.95
2023-04-26T18:50:58.747Z,1.73
2023-04-26T18:56:00.982Z,1.90
2023-04-26T19:01:03.225Z,2.10
2023-04-26T19:06:09.574Z,1.90
2023-04-26T19:11:12.558Z,1.92
2023-04-26T19:16:14.729Z,2.00
2023-04-26T19:21:16.952Z,2.33
2023-04-26T19:26:19.134Z,2.12
2023-04-26T19:31:21.773Z,2.05
2023-04-26T19:36:24.902Z,2.35
2023-04-26T19:41:27.404Z,2.10
2023-04-26T19:46:29.736Z,1.75
2023-04-26T19:51:32.261Z,1.98
2023-04-26T19:56:34.949Z,2.65
2023-04-26T20:01:37.447Z,2.10
2023-04-26T20:06:39.602Z,2.07
2023-04-26T20:11:42.317Z,2.22
2023-04-26T20:16:44.714Z,2.17
2023-04-26T20:21:46.912Z,3.20
2023-04-26T20:26:49.059Z,2.10
2023-04-26T20:31:51.440Z,2.57
2023-04-26T20:36:53.747Z,2.40
2023-04-26T20:41:55.999Z,2.50
2023-04-26T20:46:58.706Z,2.87
2023-04-26T20:52:01.040Z,3.97
2023-04-26T20:57:03.919Z,2.87
2023-04-26T21:02:07.862Z,2.70
2023-04-26T21:07:10.928Z,2.62
2023-04-26T21:12:13.105Z,2.58
2023-04-26T21:17:16.127Z,2.70
2023-04-26T21:22:18.324Z,2.90
2023-04-26T21:27:20.505Z,3.97
2023-04-26T21:32:22.643Z,6.80
2023-04-26T21:37:24.877Z,6.22
2023-04-26T21:42:27.130Z,4.97
2023-04-26T21:47:29.282Z,5.00
2023-04-26T21:52:31.802Z,4.20
2023-04-26T21:57:33.989Z,3.55
2023-04-26T22:02:36.390Z,3.50
2023-04-26T22:07:38.844Z,3.05
2023-04-26T22:12:41.250Z,2.80
2023-04-26T22:17:43.481Z,3.28
2023-04-26T22:22:46.021Z,3.05
2023-04-26T22:27:48.510Z,2.72
2023-04-26T22:32:53.738Z,3.00
2023-04-26T22:37:56.188Z,2.90
2023-04-26T22:42:58.336Z,2.70
2023-04-26T22:48:00.857Z,2.58
2023-04-26T22:53:03.155Z,2.40
2023-04-26T22:58:05.330Z,2.70
2023-04-26T23:03:07.628Z,2.90
2023-04-26T23:08:09.929Z,2.67
2023-04-26T23:13:12.110Z,2.90
2023-04-26T23:18:14.500Z,3.20
2023-04-26T23:23:16.603Z,3.25
2023-04-26T23:28:18.698Z,3.67
2023-04-26T23:33:20.985Z,3.17
2023-04-26T23:38:23.207Z,2.65
2023-04-26T23:43:25.502Z,2.78
2023-04-26T23:48:27.697Z,2.50
2023-04-26T23:53:29.885Z,2.80
2023-04-26T23:58:32.093Z,2.58
